sensor_id;sensor_type;location;lat;lon;timestamp;pressure;altitude;pressure_sealevel;temperature;humidity
60101;BME280;45978;53.646;55.930;2022-08-18T00:00:57;100144.84;;;15.10;60.14
60101;BME280;45978;53.646;55.930;2022-08-18T00:02:44;100150.19;;;15.08;60.32
60101;BME280;45978;53.646;55.930;2022-08-18T00:03:29;100154.63;;;15.08;60.24
60101;BME280;45978;53.646;55.930;2022-08-18T00:04:43;100158.06;;;15.10;59.86
60101;BME280;45978;53.646;55.930;2022-08-18T00:05:51;100138.13;;;15.01;59.95
60101;BME280;45978;53.646;55.930;2022-08-18T00:06:53;100157.06;;;15.12;59.97
60101;BME280;45978;53.646;55.930;2022-08-18T00:08:00;100161.34;;;15.15;59.67
60101;BME280;45978;53.646;55.930;2022-08-18T00:09:07;100158.72;;;15.15;59.64
60101;BME280;45978;53.646;55.930;2022-08-18T00:10:15;100159.78;;;15.11;59.54
60101;BME280;45978;53.646;55.930;2022-08-18T00:11:17;100160.78;;;15.08;59.56
60101;BME280;45978;53.646;55.930;2022-08-18T00:12:33;100159.78;;;15.11;59.50
60101;BME280;45978;53.646;55.930;2022-08-18T00:13:35;100163.31;;;15.11;59.52
60101;BME280;45978;53.646;55.930;2022-08-18T00:14:37;100160.56;;;15.13;59.50
60101;BME280;45978;53.646;55.930;2022-08-18T00:15:38;100157.91;;;15.13;59.47
60101;BME280;45978;53.646;55.930;2022-08-18T00:16:42;100167.59;;;15.14;59.39
60101;BME280;45978;53.646;55.930;2022-08-18T00:17:46;100158.88;;;15.12;59.47
60101;BME280;45978;53.646;55.930;2022-08-18T00:18:49;100166.91;;;15.09;59.67
60101;BME280;45978;53.646;55.930;2022-08-18T00:19:55;100162.81;;;15.01;59.81
60101;BME280;45978;53.646;55.930;2022-08-18T00:20:59;100162.94;;;14.98;59.70
60101;BME280;45978;53.646;55.930;2022-08-18T00:22:02;100167.22;;;15.01;59.73
60101;BME280;45978;53.646;55.930;2022-08-18T00:23:04;100166.88;;;14.88;60.34
60101;BME280;45978;53.646;55.930;2022-08-18T00:24:07;100155.47;;;14.88;60.31
60101;BME280;45978;53.646;55.930;2022-08-18T00:25:12;100159.16;;;14.83;60.58
60101;BME280;45978;53.646;55.930;2022-08-18T00:26:14;100167.75;;;14.89;60.39
60101;BME280;45978;53.646;55.930;2022-08-18T00:27:18;100165.16;;;14.87;60.55
60101;BME280;45978;53.646;55.930;2022-08-18T00:28:25;100165.03;;;14.90;60.58
60101;BME280;45978;53.646;55.930;2022-08-18T00:29:32;100161.53;;;14.90;60.49
60101;BME280;45978;53.646;55.930;2022-08-18T00:30:34;100157.06;;;14.92;60.85
60101;BME280;45978;53.646;55.930;2022-08-18T00:31:38;100162.28;;;14.93;60.82
60101;BME280;45978;53.646;55.930;2022-08-18T00:32:47;100160.59;;;14.91;60.90
60101;BME280;45978;53.646;55.930;2022-08-18T00:33:54;100159.88;;;14.87;60.90
60101;BME280;45978;53.646;55.930;2022-08-18T00:35:56;100161.06;;;14.80;61.40
60101;BME280;45978;53.646;55.930;2022-08-18T00:36:38;100159.78;;;14.68;62.01
60101;BME280;45978;53.646;55.930;2022-08-18T00:37:41;100151.22;;;14.61;62.07
60101;BME280;45978;53.646;55.930;2022-08-18T00:38:42;100140.00;;;14.55;61.94
60101;BME280;45978;53.646;55.930;2022-08-18T00:39:44;100153.19;;;14.56;62.38
60101;BME280;45978;53.646;55.930;2022-08-18T00:40:55;100149.84;;;14.51;62.76
60101;BME280;45978;53.646;55.930;2022-08-18T00:42:10;100149.03;;;14.49;62.76
60101;BME280;45978;53.646;55.930;2022-08-18T00:43:33;100150.06;;;14.45;62.87
60101;BME280;45978;53.646;55.930;2022-08-18T00:44:37;100144.00;;;14.43;62.70
60101;BME280;45978;53.646;55.930;2022-08-18T00:45:43;100144.00;;;14.43;63.10
60101;BME280;45978;53.646;55.930;2022-08-18T00:46:46;100143.94;;;14.44;62.89
60101;BME280;45978;53.646;55.930;2022-08-18T00:47:48;100139.50;;;14.45;62.80
60101;BME280;45978;53.646;55.930;2022-08-18T00:48:53;100141.25;;;14.46;62.97
60101;BME280;45978;53.646;55.930;2022-08-18T00:49:57;100134.34;;;14.42;63.08
60101;BME280;45978;53.646;55.930;2022-08-18T00:51:06;100136.88;;;14.45;63.25
60101;BME280;45978;53.646;55.930;2022-08-18T00:52:17;100143.88;;;14.46;63.06
60101;BME280;45978;53.646;55.930;2022-08-18T00:53:52;100136.97;;;14.42;63.12
60101;BME280;45978;53.646;55.930;2022-08-18T00:54:56;100142.44;;;14.37;63.21
60101;BME280;45978;53.646;55.930;2022-08-18T00:56:06;100144.34;;;14.34;63.44
60101;BME280;45978;53.646;55.930;2022-08-18T00:57:20;100150.63;;;14.31;63.34
60101;BME280;45978;53.646;55.930;2022-08-18T00:59:05;100150.00;;;14.24;64.21
60101;BME280;45978;53.646;55.930;2022-08-18T01:00:09;100148.38;;;14.20;63.80
60101;BME280;45978;53.646;55.930;2022-08-18T01:01:20;100154.69;;;14.16;64.13
60101;BME280;45978;53.646;55.930;2022-08-18T01:02:30;100150.22;;;14.18;63.96
60101;BME280;45978;53.646;55.930;2022-08-18T01:03:36;100145.81;;;14.19;64.13
60101;BME280;45978;53.646;55.930;2022-08-18T01:05:07;100159.88;;;14.19;64.19
60101;BME280;45978;53.646;55.930;2022-08-18T01:06:49;100150.34;;;14.15;64.11
60101;BME280;45978;53.646;55.930;2022-08-18T01:07:51;100158.47;;;14.11;63.77
60101;BME280;45978;53.646;55.930;2022-08-18T01:08:53;100161.22;;;14.07;63.86
60101;BME280;45978;53.646;55.930;2022-08-18T01:10:18;100159.66;;;14.02;64.61
60101;BME280;45978;53.646;55.930;2022-08-18T01:11:20;100156.16;;;14.01;64.42
60101;BME280;45978;53.646;55.930;2022-08-18T01:12:31;100155.34;;;13.99;64.64
60101;BME280;45978;53.646;55.930;2022-08-18T01:13:52;100151.88;;;13.99;64.53
60101;BME280;45978;53.646;55.930;2022-08-18T01:14:56;100158.03;;;13.98;64.47
60101;BME280;45978;53.646;55.930;2022-08-18T01:15:59;100163.31;;;13.98;64.64
60101;BME280;45978;53.646;55.930;2022-08-18T01:17:21;100166.16;;;13.93;64.89
60101;BME280;45978;53.646;55.930;2022-08-18T01:18:42;100164.41;;;13.92;64.59
60101;BME280;45978;53.646;55.930;2022-08-18T01:20:03;100170.28;;;14.00;64.57
60101;BME280;45978;53.646;55.930;2022-08-18T01:21:28;100168.28;;;14.07;64.55
60101;BME280;45978;53.646;55.930;2022-08-18T01:23:00;100171.59;;;14.12;64.28
60101;BME280;45978;53.646;55.930;2022-08-18T01:24:29;100167.91;;;14.16;64.05
60101;BME280;45978;53.646;55.930;2022-08-18T01:26:01;100176.75;;;14.15;63.94
60101;BME280;45978;53.646;55.930;2022-08-18T01:27:07;100173.09;;;14.19;64.13
60101;BME280;45978;53.646;55.930;2022-08-18T01:28:10;100173.09;;;14.19;64.11
60101;BME280;45978;53.646;55.930;2022-08-18T01:29:19;100166.06;;;14.18;63.81
60101;BME280;45978;53.646;55.930;2022-08-18T01:30:29;100168.84;;;14.15;63.88
60101;BME280;45978;53.646;55.930;2022-08-18T01:31:38;100170.72;;;14.12;64.56
60101;BME280;45978;53.646;55.930;2022-08-18T01:32:42;100162.06;;;14.08;64.20
60101;BME280;45978;53.646;55.930;2022-08-18T01:33:46;100167.47;;;14.05;64.36
60101;BME280;45978;53.646;55.930;2022-08-18T01:34:51;100168.44;;;14.02;64.85
60101;BME280;45978;53.646;55.930;2022-08-18T01:35:54;100164.94;;;14.02;64.65
60101;BME280;45978;53.646;55.930;2022-08-18T01:36:56;100170.91;;;14.07;64.81
60101;BME280;45978;53.646;55.930;2022-08-18T01:37:59;100166.53;;;14.06;64.49
60101;BME280;45978;53.646;55.930;2022-08-18T01:39:00;100172.47;;;14.13;64.74
60101;BME280;45978;53.646;55.930;2022-08-18T01:40:05;100173.13;;;14.18;64.65
60101;BME280;45978;53.646;55.930;2022-08-18T01:41:11;100164.31;;;14.19;64.55
60101;BME280;45978;53.646;55.930;2022-08-18T01:42:19;100160.09;;;14.37;63.92
60101;BME280;45978;53.646;55.930;2022-08-18T01:43:20;100157.72;;;14.75;63.18
60101;BME280;45978;53.646;55.930;2022-08-18T01:44:28;100154.56;;;15.50;61.18
60101;BME280;45978;53.646;55.930;2022-08-18T01:45:37;100146.16;;;16.38;58.46
60101;BME280;45978;53.646;55.930;2022-08-18T01:46:45;100150.75;;;17.25;56.20
60101;BME280;45978;53.646;55.930;2022-08-18T01:47:48;100143.41;;;17.98;53.68
60101;BME280;45978;53.646;55.930;2022-08-18T01:48:50;100135.09;;;18.68;51.58
60101;BME280;45978;53.646;55.930;2022-08-18T01:49:51;100143.59;;;19.35;49.83
60101;BME280;45978;53.646;55.930;2022-08-18T01:50:53;100135.50;;;19.96;48.31
60101;BME280;45978;53.646;55.930;2022-08-18T01:51:57;100126.44;;;20.54;46.85
60101;BME280;45978;53.646;55.930;2022-08-18T01:53:04;100132.63;;;21.22;45.26
60101;BME280;45978;53.646;55.930;2022-08-18T01:54:10;100127.34;;;21.73;43.98
60101;BME280;45978;53.646;55.930;2022-08-18T01:55:12;100117.22;;;22.15;42.83
60101;BME280;45978;53.646;55.930;2022-08-18T01:56:13;100112.47;;;22.45;42.09
60101;BME280;45978;53.646;55.930;2022-08-18T01:57:20;100121.88;;;22.86;40.82
60101;BME280;45978;53.646;55.930;2022-08-18T01:58:22;100123.47;;;23.12;40.72
60101;BME280;45978;53.646;55.930;2022-08-18T01:59:27;100127.59;;;22.81;40.51
60101;BME280;45978;53.646;55.930;2022-08-18T02:00:30;100128.84;;;23.12;40.10
60101;BME280;45978;53.646;55.930;2022-08-18T02:01:37;100124.31;;;23.60;38.39
60101;BME280;45978;53.646;55.930;2022-08-18T02:02:39;100131.25;;;23.62;38.85
60101;BME280;45978;53.646;55.930;2022-08-18T02:03:52;100132.47;;;23.69;37.53
60101;BME280;45978;53.646;55.930;2022-08-18T02:05:00;100123.09;;;23.75;37.42
60101;BME280;45978;53.646;55.930;2022-08-18T02:06:05;100133.22;;;23.94;37.73
60101;BME280;45978;53.646;55.930;2022-08-18T02:07:11;100139.06;;;24.56;36.74
60101;BME280;45978;53.646;55.930;2022-08-18T02:08:12;100138.44;;;24.84;36.38
60101;BME280;45978;53.646;55.930;2022-08-18T02:09:15;100135.56;;;25.29;35.45
60101;BME280;45978;53.646;55.930;2022-08-18T02:10:16;100134.31;;;25.76;34.69
60101;BME280;45978;53.646;55.930;2022-08-18T02:11:18;100122.81;;;26.04;34.33
60101;BME280;45978;53.646;55.930;2022-08-18T02:12:21;100125.56;;;26.24;33.54
60101;BME280;45978;53.646;55.930;2022-08-18T02:13:26;100127.88;;;26.48;32.93
60101;BME280;45978;53.646;55.930;2022-08-18T02:14:28;100126.25;;;26.76;32.72
60101;BME280;45978;53.646;55.930;2022-08-18T02:15:29;100137.06;;;27.05;32.44
60101;BME280;45978;53.646;55.930;2022-08-18T02:16:34;100136.91;;;27.26;31.54
60101;BME280;45978;53.646;55.930;2022-08-18T02:18:01;100151.38;;;27.25;31.61
60101;BME280;45978;53.646;55.930;2022-08-18T02:19:02;100149.78;;;27.42;31.81
60101;BME280;45978;53.646;55.930;2022-08-18T02:20:05;100151.47;;;27.53;31.38
60101;BME280;45978;53.646;55.930;2022-08-18T02:21:13;100151.72;;;27.70;31.14
60101;BME280;45978;53.646;55.930;2022-08-18T02:22:17;100145.56;;;27.87;30.78
60101;BME280;45978;53.646;55.930;2022-08-18T02:23:20;100156.72;;;28.12;30.22
60101;BME280;45978;53.646;55.930;2022-08-18T02:24:23;100153.59;;;28.34;30.26
60101;BME280;45978;53.646;55.930;2022-08-18T02:25:24;100155.06;;;28.56;29.38
60101;BME280;45978;53.646;55.930;2022-08-18T02:26:25;100146.34;;;28.62;29.54
60101;BME280;45978;53.646;55.930;2022-08-18T02:27:27;100153.78;;;28.78;29.09
60101;BME280;45978;53.646;55.930;2022-08-18T02:28:28;100148.53;;;28.95;28.55
60101;BME280;45978;53.646;55.930;2022-08-18T02:29:31;100153.47;;;29.17;28.21
60101;BME280;45978;53.646;55.930;2022-08-18T02:30:34;100147.44;;;29.23;28.24
60101;BME280;45978;53.646;55.930;2022-08-18T02:31:40;100148.09;;;29.44;27.80
60101;BME280;45978;53.646;55.930;2022-08-18T02:32:41;100154.03;;;29.47;28.01
60101;BME280;45978;53.646;55.930;2022-08-18T02:33:51;100152.97;;;29.66;27.46
60101;BME280;45978;53.646;55.930;2022-08-18T02:34:53;100157.13;;;29.78;27.40
60101;BME280;45978;53.646;55.930;2022-08-18T02:35:56;100159.97;;;29.95;26.95
60101;BME280;45978;53.646;55.930;2022-08-18T02:37:00;100154.59;;;30.11;27.02
60101;BME280;45978;53.646;55.930;2022-08-18T02:38:05;100156.00;;;30.24;26.56
60101;BME280;45978;53.646;55.930;2022-08-18T02:39:14;100158.59;;;30.33;26.75
60101;BME280;45978;53.646;55.930;2022-08-18T02:40:18;100153.41;;;30.40;26.27
60101;BME280;45978;53.646;55.930;2022-08-18T02:41:20;100161.19;;;30.51;26.01
60101;BME280;45978;53.646;55.930;2022-08-18T02:42:22;100159.56;;;30.75;26.01
60101;BME280;45978;53.646;55.930;2022-08-18T02:43:25;100159.91;;;30.80;25.92
60101;BME280;45978;53.646;55.930;2022-08-18T02:44:26;100158.59;;;31.01;25.88
60101;BME280;45978;53.646;55.930;2022-08-18T02:45:28;100162.69;;;31.21;25.60
60101;BME280;45978;53.646;55.930;2022-08-18T02:46:29;100157.78;;;31.33;25.57
60101;BME280;45978;53.646;55.930;2022-08-18T02:47:31;100151.31;;;31.42;25.35
60101;BME280;45978;53.646;55.930;2022-08-18T02:48:33;100157.44;;;31.52;25.40
60101;BME280;45978;53.646;55.930;2022-08-18T02:49:34;100150.59;;;31.73;25.06
60101;BME280;45978;53.646;55.930;2022-08-18T02:50:36;100143.97;;;31.75;25.03
60101;BME280;45978;53.646;55.930;2022-08-18T02:51:45;100151.25;;;31.91;24.70
60101;BME280;45978;53.646;55.930;2022-08-18T02:52:47;100156.63;;;32.00;24.52
60101;BME280;45978;53.646;55.930;2022-08-18T02:53:48;100155.09;;;32.13;24.64
60101;BME280;45978;53.646;55.930;2022-08-18T02:54:49;100158.97;;;32.19;24.01
60101;BME280;45978;53.646;55.930;2022-08-18T02:55:50;100158.88;;;32.35;23.86
60101;BME280;45978;53.646;55.930;2022-08-18T02:56:51;100161.41;;;32.06;23.87
60101;BME280;45978;53.646;55.930;2022-08-18T02:57:53;100150.34;;;31.99;23.74
60101;BME280;45978;53.646;55.930;2022-08-18T02:59:03;100154.66;;;31.77;23.89
60101;BME280;45978;53.646;55.930;2022-08-18T03:00:05;100167.84;;;32.05;24.02
60101;BME280;45978;53.646;55.930;2022-08-18T03:01:06;100167.00;;;32.04;23.92
60101;BME280;45978;53.646;55.930;2022-08-18T03:02:09;100164.09;;;32.14;23.95
60101;BME280;45978;53.646;55.930;2022-08-18T03:03:11;100165.97;;;31.97;23.91
60101;BME280;45978;53.646;55.930;2022-08-18T03:04:16;100168.59;;;31.74;23.95
60101;BME280;45978;53.646;55.930;2022-08-18T03:05:19;100169.22;;;32.01;24.03
60101;BME280;45978;53.646;55.930;2022-08-18T03:06:21;100164.25;;;32.12;23.70
60101;BME280;45978;53.646;55.930;2022-08-18T03:07:22;100164.56;;;31.45;24.13
60101;BME280;45978;53.646;55.930;2022-08-18T03:08:25;100168.28;;;31.44;24.10
60101;BME280;45978;53.646;55.930;2022-08-18T03:09:27;100171.31;;;31.41;24.52
60101;BME280;45978;53.646;55.930;2022-08-18T03:10:28;100166.22;;;31.38;24.35
60101;BME280;45978;53.646;55.930;2022-08-18T03:11:29;100179.16;;;31.61;24.37
60101;BME280;45978;53.646;55.930;2022-08-18T03:12:32;100173.38;;;31.31;24.79
60101;BME280;45978;53.646;55.930;2022-08-18T03:13:36;100166.22;;;30.89;24.80
60101;BME280;45978;53.646;55.930;2022-08-18T03:14:40;100181.34;;;30.91;24.65
60101;BME280;45978;53.646;55.930;2022-08-18T03:15:41;100167.25;;;31.37;24.53
60101;BME280;45978;53.646;55.930;2022-08-18T03:16:47;100174.91;;;31.58;24.22
60101;BME280;45978;53.646;55.930;2022-08-18T03:17:49;100175.66;;;32.08;23.94
60101;BME280;45978;53.646;55.930;2022-08-18T03:18:52;100171.28;;;32.38;23.51
60101;BME280;45978;53.646;55.930;2022-08-18T03:19:54;100162.81;;;32.33;23.49
60101;BME280;45978;53.646;55.930;2022-08-18T03:20:55;100162.13;;;32.70;23.32
60101;BME280;45978;53.646;55.930;2022-08-18T03:21:59;100152.09;;;33.17;23.12
60101;BME280;45978;53.646;55.930;2022-08-18T03:23:02;100153.25;;;33.61;22.28
60101;BME280;45978;53.646;55.930;2022-08-18T03:24:04;100158.91;;;34.04;21.71
60101;BME280;45978;53.646;55.930;2022-08-18T03:25:06;100164.91;;;34.14;22.10
60101;BME280;45978;53.646;55.930;2022-08-18T03:26:15;100160.88;;;34.10;21.86
60101;BME280;45978;53.646;55.930;2022-08-18T03:27:16;100162.25;;;33.61;22.26
60101;BME280;45978;53.646;55.930;2022-08-18T03:28:17;100154.16;;;33.15;22.44
60101;BME280;45978;53.646;55.930;2022-08-18T03:29:20;100161.53;;;33.29;22.70
60101;BME280;45978;53.646;55.930;2022-08-18T03:30:21;100168.53;;;33.47;22.51
60101;BME280;45978;53.646;55.930;2022-08-18T03:31:26;100163.50;;;33.73;22.22
60101;BME280;45978;53.646;55.930;2022-08-18T03:32:29;100165.97;;;33.98;22.13
60101;BME280;45978;53.646;55.930;2022-08-18T03:33:30;100168.31;;;33.86;21.93
60101;BME280;45978;53.646;55.930;2022-08-18T03:34:37;100173.13;;;33.61;22.26
60101;BME280;45978;53.646;55.930;2022-08-18T03:35:40;100169.72;;;33.44;21.97
60101;BME280;45978;53.646;55.930;2022-08-18T03:36:45;100151.72;;;32.43;23.26
60101;BME280;45978;53.646;55.930;2022-08-18T03:37:47;100173.19;;;32.29;23.35
60101;BME280;45978;53.646;55.930;2022-08-18T03:38:50;100168.56;;;31.90;23.74
60101;BME280;45978;53.646;55.930;2022-08-18T03:39:56;100158.38;;;32.32;23.31
60101;BME280;45978;53.646;55.930;2022-08-18T03:40:57;100167.00;;;31.96;23.53
60101;BME280;45978;53.646;55.930;2022-08-18T03:42:00;100174.31;;;31.95;23.43
60101;BME280;45978;53.646;55.930;2022-08-18T03:43:04;100169.13;;;32.25;23.26
60101;BME280;45978;53.646;55.930;2022-08-18T03:44:10;100173.25;;;32.21;23.68
60101;BME280;45978;53.646;55.930;2022-08-18T03:45:11;100169.53;;;32.45;23.49
60101;BME280;45978;53.646;55.930;2022-08-18T03:46:18;100169.19;;;33.03;22.83
60101;BME280;45978;53.646;55.930;2022-08-18T03:47:20;100161.72;;;33.43;22.75
60101;BME280;45978;53.646;55.930;2022-08-18T03:48:22;100167.47;;;33.71;22.17
60101;BME280;45978;53.646;55.930;2022-08-18T03:49:23;100163.38;;;33.29;22.37
60101;BME280;45978;53.646;55.930;2022-08-18T03:50:28;100172.94;;;33.48;22.44
60101;BME280;45978;53.646;55.930;2022-08-18T03:51:31;100173.44;;;33.28;22.49
60101;BME280;45978;53.646;55.930;2022-08-18T03:52:32;100174.47;;;33.04;22.66
60101;BME280;45978;53.646;55.930;2022-08-18T03:53:35;100178.34;;;32.87;22.52
60101;BME280;45978;53.646;55.930;2022-08-18T03:54:37;100168.44;;;32.94;22.69
60101;BME280;45978;53.646;55.930;2022-08-18T03:55:41;100176.41;;;32.95;22.60
60101;BME280;45978;53.646;55.930;2022-08-18T03:56:45;100172.91;;;33.33;22.34
60101;BME280;45978;53.646;55.930;2022-08-18T03:57:47;100179.31;;;33.17;22.78
60101;BME280;45978;53.646;55.930;2022-08-18T03:58:51;100177.19;;;33.04;22.58
60101;BME280;45978;53.646;55.930;2022-08-18T03:59:54;100153.78;;;32.72;22.96
60101;BME280;45978;53.646;55.930;2022-08-18T04:00:56;100182.25;;;33.16;22.94
60101;BME280;45978;53.646;55.930;2022-08-18T04:01:58;100179.16;;;32.87;23.08
60101;BME280;45978;53.646;55.930;2022-08-18T04:03:01;100169.69;;;32.83;22.94
60101;BME280;45978;53.646;55.930;2022-08-18T04:04:08;100174.13;;;33.07;22.65
60101;BME280;45978;53.646;55.930;2022-08-18T04:05:09;100176.13;;;33.51;22.76
60101;BME280;45978;53.646;55.930;2022-08-18T04:06:20;100174.44;;;33.88;21.65
60101;BME280;45978;53.646;55.930;2022-08-18T04:07:22;100168.00;;;34.11;21.73
60101;BME280;45978;53.646;55.930;2022-08-18T04:08:23;100174.00;;;34.66;21.06
60101;BME280;45978;53.646;55.930;2022-08-18T04:09:27;100165.50;;;34.97;20.59
60101;BME280;45978;53.646;55.930;2022-08-18T04:10:29;100169.84;;;35.13;20.51
60101;BME280;45978;53.646;55.930;2022-08-18T04:11:32;100165.16;;;35.07;20.51
60101;BME280;45978;53.646;55.930;2022-08-18T04:12:33;100172.97;;;35.32;20.19
60101;BME280;45978;53.646;55.930;2022-08-18T04:13:36;100175.94;;;35.65;19.97
60101;BME280;45978;53.646;55.930;2022-08-18T04:14:41;100168.41;;;34.74;20.50
60101;BME280;45978;53.646;55.930;2022-08-18T04:15:48;100178.81;;;33.89;21.05
60101;BME280;45978;53.646;55.930;2022-08-18T04:16:51;100172.59;;;33.66;21.49
60101;BME280;45978;53.646;55.930;2022-08-18T04:17:52;100181.84;;;33.42;21.74
60101;BME280;45978;53.646;55.930;2022-08-18T04:18:54;100181.00;;;33.79;22.07
60101;BME280;45978;53.646;55.930;2022-08-18T04:19:57;100176.00;;;33.68;21.88
60101;BME280;45978;53.646;55.930;2022-08-18T04:21:05;100175.47;;;34.32;21.44
60101;BME280;45978;53.646;55.930;2022-08-18T04:22:15;100174.72;;;34.60;21.08
60101;BME280;45978;53.646;55.930;2022-08-18T04:23:16;100174.47;;;34.91;20.69
60101;BME280;45978;53.646;55.930;2022-08-18T04:24:17;100181.59;;;35.14;20.48
60101;BME280;45978;53.646;55.930;2022-08-18T04:25:20;100174.06;;;35.37;20.28
60101;BME280;45978;53.646;55.930;2022-08-18T04:26:22;100169.34;;;35.24;20.57
60101;BME280;45978;53.646;55.930;2022-08-18T04:27:23;100169.47;;;34.95;20.86
60101;BME280;45978;53.646;55.930;2022-08-18T04:28:33;100173.91;;;34.59;21.08
60101;BME280;45978;53.646;55.930;2022-08-18T04:29:34;100176.56;;;34.38;21.54
60101;BME280;45978;53.646;55.930;2022-08-18T04:30:36;100179.66;;;34.35;21.73
60101;BME280;45978;53.646;55.930;2022-08-18T04:31:38;100186.59;;;34.52;21.72
60101;BME280;45978;53.646;55.930;2022-08-18T04:32:39;100184.28;;;34.19;21.34
60101;BME280;45978;53.646;55.930;2022-08-18T04:33:41;100186.63;;;33.92;21.96
60101;BME280;45978;53.646;55.930;2022-08-18T04:34:43;100173.38;;;34.04;21.81
60101;BME280;45978;53.646;55.930;2022-08-18T04:35:46;100187.41;;;34.16;21.77
60101;BME280;45978;53.646;55.930;2022-08-18T04:36:50;100182.63;;;34.69;21.23
60101;BME280;45978;53.646;55.930;2022-08-18T04:37:53;100172.53;;;34.85;20.92
60101;BME280;45978;53.646;55.930;2022-08-18T04:38:56;100178.22;;;35.11;21.20
60101;BME280;45978;53.646;55.930;2022-08-18T04:39:59;100184.41;;;35.42;20.32
60101;BME280;45978;53.646;55.930;2022-08-18T04:41:01;100182.78;;;35.47;20.55
60101;BME280;45978;53.646;55.930;2022-08-18T04:42:04;100180.28;;;35.53;20.42
60101;BME280;45978;53.646;55.930;2022-08-18T04:43:06;100179.00;;;35.05;20.64
60101;BME280;45978;53.646;55.930;2022-08-18T04:44:11;100185.28;;;34.48;21.17
60101;BME280;45978;53.646;55.930;2022-08-18T04:45:13;100189.88;;;34.62;21.10
60101;BME280;45978;53.646;55.930;2022-08-18T04:46:14;100185.88;;;34.43;21.26
60101;BME280;45978;53.646;55.930;2022-08-18T04:47:15;100182.84;;;34.53;21.36
60101;BME280;45978;53.646;55.930;2022-08-18T04:48:16;100185.06;;;34.79;21.33
60101;BME280;45978;53.646;55.930;2022-08-18T04:49:19;100183.19;;;35.23;20.83
60101;BME280;45978;53.646;55.930;2022-08-18T04:50:21;100178.16;;;34.83;21.08
60101;BME280;45978;53.646;55.930;2022-08-18T04:51:31;100188.94;;;34.70;21.55
60101;BME280;45978;53.646;55.930;2022-08-18T04:52:33;100176.75;;;34.51;21.83
60101;BME280;45978;53.646;55.930;2022-08-18T04:53:53;100197.44;;;34.45;21.69
60101;BME280;45978;53.646;55.930;2022-08-18T04:54:55;100186.47;;;34.60;21.67
60101;BME280;45978;53.646;55.930;2022-08-18T04:55:57;100188.47;;;35.24;21.16
60101;BME280;45978;53.646;55.930;2022-08-18T04:57:06;100190.19;;;35.10;21.24
60101;BME280;45978;53.646;55.930;2022-08-18T04:58:07;100186.31;;;35.20;21.11
60101;BME280;45978;53.646;55.930;2022-08-18T04:59:11;100188.63;;;35.44;20.42
60101;BME280;45978;53.646;55.930;2022-08-18T05:00:13;100189.56;;;35.58;20.58
60101;BME280;45978;53.646;55.930;2022-08-18T05:01:14;100189.03;;;34.98;21.30
60101;BME280;45978;53.646;55.930;2022-08-18T05:02:19;100198.84;;;33.82;22.40
60101;BME280;45978;53.646;55.930;2022-08-18T05:03:21;100198.63;;;33.07;22.97
60101;BME280;45978;53.646;55.930;2022-08-18T05:04:26;100199.63;;;33.06;23.28
60101;BME280;45978;53.646;55.930;2022-08-18T05:05:28;100182.78;;;33.11;23.52
60101;BME280;45978;53.646;55.930;2022-08-18T05:06:33;100194.03;;;33.69;22.39
60101;BME280;45978;53.646;55.930;2022-08-18T05:07:35;100192.28;;;34.21;22.10
60101;BME280;45978;53.646;55.930;2022-08-18T05:08:37;100187.19;;;34.47;22.23
60101;BME280;45978;53.646;55.930;2022-08-18T05:09:38;100191.03;;;34.89;21.74
60101;BME280;45978;53.646;55.930;2022-08-18T05:10:41;100193.16;;;34.94;21.73
60101;BME280;45978;53.646;55.930;2022-08-18T05:11:44;100190.44;;;35.16;21.31
60101;BME280;45978;53.646;55.930;2022-08-18T05:12:48;100200.41;;;34.65;21.87
60101;BME280;45978;53.646;55.930;2022-08-18T05:13:50;100200.91;;;34.69;21.97
60101;BME280;45978;53.646;55.930;2022-08-18T05:14:55;100200.13;;;34.60;21.95
60101;BME280;45978;53.646;55.930;2022-08-18T05:15:58;100189.88;;;34.62;21.68
60101;BME280;45978;53.646;55.930;2022-08-18T05:17:05;100201.84;;;33.87;22.64
60101;BME280;45978;53.646;55.930;2022-08-18T05:18:06;100203.31;;;32.59;24.29
60101;BME280;45978;53.646;55.930;2022-08-18T05:19:10;100197.66;;;32.69;24.31
60101;BME280;45978;53.646;55.930;2022-08-18T05:20:12;100199.13;;;32.80;23.99
60101;BME280;45978;53.646;55.930;2022-08-18T05:21:16;100194.06;;;31.73;25.34
60101;BME280;45978;53.646;55.930;2022-08-18T05:22:18;100195.94;;;31.72;25.32
60101;BME280;45978;53.646;55.930;2022-08-18T05:23:21;100196.06;;;32.43;24.62
60101;BME280;45978;53.646;55.930;2022-08-18T05:24:24;100196.00;;;32.91;24.64
60101;BME280;45978;53.646;55.930;2022-08-18T05:25:28;100185.00;;;33.07;24.14
60101;BME280;45978;53.646;55.930;2022-08-18T05:26:29;100191.44;;;33.52;24.17
60101;BME280;45978;53.646;55.930;2022-08-18T05:27:33;100190.88;;;33.80;23.82
60101;BME280;45978;53.646;55.930;2022-08-18T05:28:35;100196.00;;;33.90;23.30
60101;BME280;45978;53.646;55.930;2022-08-18T05:29:36;100191.69;;;33.96;23.54
60101;BME280;45978;53.646;55.930;2022-08-18T05:30:38;100195.84;;;34.06;23.39
60101;BME280;45978;53.646;55.930;2022-08-18T05:31:41;100197.31;;;33.64;24.05
60101;BME280;45978;53.646;55.930;2022-08-18T05:32:45;100199.31;;;33.09;24.13
60101;BME280;45978;53.646;55.930;2022-08-18T05:33:48;100200.75;;;32.89;24.46
60101;BME280;45978;53.646;55.930;2022-08-18T05:34:50;100193.44;;;32.89;24.99
60101;BME280;45978;53.646;55.930;2022-08-18T05:36:00;100202.44;;;33.59;23.90
60101;BME280;45978;53.646;55.930;2022-08-18T05:39:27;100201.13;;;33.55;23.95